Time;durP1;ratioP1;P1;durP2;ratioP2;P2;SDS_P1;SDS_P2;PMS_P1;PMS_P2;Temp;Humidity;BMP_temperature;BMP_pressure;BME280_temperature;BME280_humidity;BME280_pressure;Samples;Min_cycle;Max_cycle;Signal;HPM_P1;HPM_P2
2022/10/12 00:00:21;;;;;;;4.23;1.83;;;;;;;;;;5006042;28;20301;-76
2022/10/12 00:02:47;;;;;;;7.30;2.60;;;;;;;;;;4994323;28;20237;-76
2022/10/12 00:05:12;;;;;;;8.10;2.37;;;;;;;;;;4976325;28;20224;-75
2022/10/12 00:07:38;;;;;;;4.53;2.03;;;;;;;;;;4996928;28;20225;-75
2022/10/12 00:10:07;;;;;;;5.67;2.30;;;;;;;;;;4979938;28;20229;-75
2022/10/12 00:12:37;;;;;;;5.50;2.17;;;;;;;;;;4958068;28;20229;-77
2022/10/12 00:15:06;;;;;;;9.77;2.40;;;;;;;;;;4981469;28;20221;-75
2022/10/12 00:17:31;;;;;;;7.97;2.20;;;;;;;;;;5006221;28;20255;-74
2022/10/12 00:19:59;;;;;;;6.63;2.37;;;;;;;;;;4981912;28;20221;-76
2022/10/12 00:22:24;;;;;;;9.47;2.13;;;;;;;;;;5007938;28;20250;-74
2022/10/12 00:24:53;;;;;;;4.00;1.93;;;;;;;;;;4964488;28;20234;-77
2022/10/12 00:27:21;;;;;;;8.07;2.23;;;;;;;;;;4988648;28;20241;-76
2022/10/12 00:29:47;;;;;;;5.40;2.03;;;;;;;;;;4978526;28;20591;-76
2022/10/12 00:32:14;;;;;;;8.73;2.20;;;;;;;;;;4972371;28;20236;-75
2022/10/12 00:34:42;;;;;;;8.10;2.33;;;;;;;;;;4966596;28;20260;-76
2022/10/12 00:37:15;;;;;;;6.10;2.13;;;;;;;;;;4982545;28;20601;-74
2022/10/12 00:39:40;;;;;;;5.67;2.33;;;;;;;;;;5003296;28;20700;-75
2022/10/12 00:42:08;;;;;;;5.47;2.30;;;;;;;;;;4977065;28;20271;-75
2022/10/12 00:44:35;;;;;;;7.67;2.17;;;;;;;;;;4994396;28;20245;-75
2022/10/12 00:47:04;;;;;;;3.93;1.80;;;;;;;;;;4993119;28;20233;-75
2022/10/12 00:49:29;;;;;;;11.87;2.73;;;;;;;;;;4976724;28;20299;-74
2022/10/12 00:52:03;;;;;;;8.27;2.33;;;;;;;;;;4991877;28;20231;-74
2022/10/12 00:54:31;;;;;;;5.93;2.20;;;;;;;;;;5006376;28;20226;-75
2022/10/12 00:56:56;;;;;;;9.77;2.10;;;;;;;;;;4996732;28;20223;-75
2022/10/12 00:59:25;;;;;;;4.53;2.10;;;;;;;;;;4977519;28;20237;-74
2022/10/12 01:01:55;;;;;;;5.50;2.20;;;;;;;;;;4985153;28;20232;-74
2022/10/12 01:04:23;;;;;;;6.53;1.90;;;;;;;;;;4994609;28;20222;-74
2022/10/12 01:06:52;;;;;;;7.40;2.20;;;;;;;;;;4979871;28;20256;-74
2022/10/12 01:09:20;;;;;;;5.83;1.90;;;;;;;;;;5009826;28;20224;-75
2022/10/12 01:11:45;;;;;;;5.87;2.40;;;;;;;;;;5003576;28;20224;-75
2022/10/12 01:14:11;;;;;;;5.23;2.10;;;;;;;;;;4991828;28;20229;-76
2022/10/12 01:16:51;;;;;;;6.83;2.00;;;;;;;;;;4973256;28;20209;-76
2022/10/12 01:19:39;;;;;;;6.97;2.30;;;;;;;;;;4987749;28;20226;-74
2022/10/12 01:22:15;;;;;;;6.57;1.87;;;;;;;;;;4997481;28;20240;-75
2022/10/12 01:24:53;;;;;;;5.37;1.97;;;;;;;;;;4986667;28;20224;-75
2022/10/12 01:27:37;;;;;;;10.43;2.60;;;;;;;;;;4987210;28;20225;-76
2022/10/12 01:30:10;;;;;;;7.47;2.40;;;;;;;;;;5003220;28;20238;-75
2022/10/12 01:32:54;;;;;;;9.03;2.00;;;;;;;;;;4965462;28;20321;-76
2022/10/12 01:35:43;;;;;;;6.53;2.13;;;;;;;;;;4986496;28;20236;-75
2022/10/12 01:38:14;;;;;;;8.00;2.37;;;;;;;;;;4980131;28;20287;-76
2022/10/12 01:40:44;;;;;;;7.10;2.30;;;;;;;;;;4990899;28;20229;-75
2022/10/12 01:43:12;;;;;;;8.70;2.30;;;;;;;;;;4989570;28;20359;-76
2022/10/12 01:45:39;;;;;;;5.87;2.40;;;;;;;;;;4995365;28;20228;-73
2022/10/12 01:48:07;;;;;;;9.60;2.50;;;;;;;;;;4992113;28;20229;-75
2022/10/12 01:50:51;;;;;;;9.03;2.03;;;;;;;;;;4980991;28;20798;-76
2022/10/12 01:53:31;;;;;;;5.30;2.17;;;;;;;;;;4975123;28;20341;-76
2022/10/12 01:56:01;;;;;;;6.10;2.40;;;;;;;;;;4981585;28;20290;-76
2022/10/12 01:58:51;;;;;;;5.57;2.27;;;;;;;;;;4997260;28;20228;-75
2022/10/12 02:01:28;;;;;;;5.70;2.27;;;;;;;;;;4999744;28;20272;-74
2022/10/12 02:04:11;;;;;;;6.10;2.53;;;;;;;;;;4999981;28;20229;-76
2022/10/12 02:06:46;;;;;;;9.17;2.07;;;;;;;;;;4988036;28;20244;-74
2022/10/12 02:09:19;;;;;;;5.93;2.40;;;;;;;;;;4964881;28;20738;-74
2022/10/12 02:11:49;;;;;;;6.30;2.00;;;;;;;;;;4971323;28;20233;-76
2022/10/12 02:14:20;;;;;;;8.50;2.40;;;;;;;;;;4976284;28;20230;-76
2022/10/12 02:16:53;;;;;;;7.87;2.73;;;;;;;;;;4982869;28;20237;-74
2022/10/12 02:19:24;;;;;;;6.70;2.10;;;;;;;;;;4989954;28;20233;-75
2022/10/12 02:21:52;;;;;;;8.40;2.40;;;;;;;;;;5000657;28;20288;-76
2022/10/12 02:24:22;;;;;;;6.60;2.20;;;;;;;;;;4990942;28;20229;-76
2022/10/12 02:26:48;;;;;;;7.57;2.20;;;;;;;;;;5001611;28;20611;-75
2022/10/12 02:29:16;;;;;;;6.23;2.33;;;;;;;;;;4988847;28;20590;-75
2022/10/12 02:32:04;;;;;;;12.13;2.13;;;;;;;;;;4995574;28;20230;-74
2022/10/12 02:34:49;;;;;;;3.77;2.03;;;;;;;;;;4995870;28;20276;-74
2022/10/12 02:37:41;;;;;;;5.20;1.90;;;;;;;;;;4981101;28;20280;-74
2022/10/12 02:40:39;;;;;;;5.17;2.03;;;;;;;;;;4995637;28;20230;-74
2022/10/12 02:43:12;;;;;;;5.40;2.00;;;;;;;;;;5000742;28;20230;-74
2022/10/12 02:45:39;;;;;;;6.47;2.03;;;;;;;;;;4999656;28;20229;-75
2022/10/12 02:48:05;;;;;;;10.43;2.10;;;;;;;;;;5009059;28;20233;-74
2022/10/12 02:50:30;;;;;;;4.80;1.60;;;;;;;;;;4989796;28;20245;-74
2022/10/12 02:52:56;;;;;;;4.60;1.50;;;;;;;;;;4980075;28;20236;-74
2022/10/12 02:55:24;;;;;;;6.13;1.63;;;;;;;;;;5005666;28;20235;-76
2022/10/12 02:57:55;;;;;;;6.63;1.73;;;;;;;;;;4969953;28;20626;-76
2022/10/12 03:00:20;;;;;;;7.50;2.10;;;;;;;;;;4965876;28;20284;-76
2022/10/12 03:02:46;;;;;;;3.83;1.47;;;;;;;;;;4984356;28;20230;-74
2022/10/12 03:05:11;;;;;;;5.70;2.10;;;;;;;;;;4987984;28;20300;-73
2022/10/12 03:07:39;;;;;;;6.67;2.13;;;;;;;;;;4971553;28;20229;-76
2022/10/12 03:10:07;;;;;;;3.90;1.50;;;;;;;;;;4989995;28;20236;-75
2022/10/12 03:12:35;;;;;;;5.17;2.10;;;;;;;;;;4990256;28;20221;-76
2022/10/12 03:15:00;;;;;;;4.47;1.70;;;;;;;;;;4994294;28;20226;-75
2022/10/12 03:17:26;;;;;;;7.57;1.80;;;;;;;;;;4992880;28;20777;-73
2022/10/12 03:19:51;;;;;;;4.03;2.27;;;;;;;;;;4990458;28;20230;-74
2022/10/12 03:22:17;;;;;;;7.13;2.30;;;;;;;;;;5004890;28;20228;-73
2022/10/12 03:24:42;;;;;;;7.27;3.50;;;;;;;;;;5009839;28;20228;-73
2022/10/12 03:27:08;;;;;;;8.50;3.60;;;;;;;;;;4996247;28;20891;-75
2022/10/12 03:29:33;;;;;;;6.13;3.20;;;;;;;;;;4991789;28;20270;-75
2022/10/12 03:32:01;;;;;;;6.47;2.67;;;;;;;;;;4998324;28;20719;-76
2022/10/12 03:34:29;;;;;;;6.00;4.43;;;;;;;;;;4995299;28;20272;-75
2022/10/12 03:36:59;;;;;;;4.43;2.00;;;;;;;;;;4995314;28;20724;-75
2022/10/12 03:39:27;;;;;;;8.20;2.00;;;;;;;;;;4980694;28;20248;-73
2022/10/12 03:41:52;;;;;;;5.07;2.00;;;;;;;;;;4988322;28;20225;-74
2022/10/12 03:44:18;;;;;;;6.93;3.70;;;;;;;;;;4962415;28;20214;-75
2022/10/12 03:46:43;;;;;;;9.77;3.23;;;;;;;;;;4979144;28;20738;-76
2022/10/12 03:49:09;;;;;;;9.10;3.30;;;;;;;;;;4993842;28;20232;-75
2022/10/12 03:51:34;;;;;;;4.60;2.73;;;;;;;;;;4988056;28;20668;-75
2022/10/12 03:54:03;;;;;;;8.03;3.20;;;;;;;;;;4972614;28;20286;-75
2022/10/12 03:56:30;;;;;;;5.83;2.63;;;;;;;;;;4989654;28;20646;-74
2022/10/12 03:58:58;;;;;;;6.10;1.90;;;;;;;;;;4977254;28;20233;-74
2022/10/12 04:01:26;;;;;;;5.43;2.17;;;;;;;;;;4970994;28;20218;-73
2022/10/12 04:03:52;;;;;;;6.37;2.00;;;;;;;;;;4989304;28;20313;-73
2022/10/12 04:06:17;;;;;;;6.40;3.00;;;;;;;;;;4975331;28;20229;-73
2022/10/12 04:08:45;;;;;;;4.53;2.30;;;;;;;;;;4981346;28;20233;-73
2022/10/12 04:11:11;;;;;;;4.87;2.37;;;;;;;;;;4981498;28;20283;-74
2022/10/12 04:13:36;;;;;;;6.07;2.00;;;;;;;;;;4995802;28;20723;-74
2022/10/12 04:16:06;;;;;;;7.10;1.80;;;;;;;;;;4981313;28;20230;-73
2022/10/12 04:18:32;;;;;;;4.40;1.83;;;;;;;;;;4993267;28;20278;-74
2022/10/12 04:21:00;;;;;;;3.77;1.67;;;;;;;;;;4983432;28;20225;-74
2022/10/12 04:23:26;;;;;;;5.20;1.70;;;;;;;;;;4990501;28;20214;-75
2022/10/12 04:25:54;;;;;;;6.10;1.67;;;;;;;;;;5010169;28;20236;-75
2022/10/12 04:28:19;;;;;;;3.60;1.30;;;;;;;;;;5010460;28;20240;-74
2022/10/12 04:30:45;;;;;;;3.67;1.43;;;;;;;;;;4994082;28;20233;-74
2022/10/12 04:33:12;;;;;;;3.13;1.77;;;;;;;;;;4988502;28;20246;-74
2022/10/12 04:35:38;;;;;;;2.20;1.43;;;;;;;;;;4980144;28;20241;-74
2022/10/12 04:38:03;;;;;;;5.50;1.73;;;;;;;;;;4973921;28;20230;-74
2022/10/12 04:40:31;;;;;;;3.20;1.57;;;;;;;;;;4981662;28;20691;-73
2022/10/12 04:42:57;;;;;;;2.73;1.60;;;;;;;;;;4970378;28;20233;-75
2022/10/12 04:45:22;;;;;;;3.80;2.10;;;;;;;;;;4987823;28;20239;-74
2022/10/12 04:47:48;;;;;;;5.90;2.03;;;;;;;;;;5001813;28;20289;-74
2022/10/12 04:50:13;;;;;;;3.47;1.87;;;;;;;;;;4972446;28;20235;-76
2022/10/12 04:52:41;;;;;;;4.63;1.80;;;;;;;;;;4972630;28;20245;-75
2022/10/12 04:55:07;;;;;;;2.93;2.13;;;;;;;;;;4975896;28;20230;-74
2022/10/12 04:57:35;;;;;;;5.23;2.00;;;;;;;;;;5003782;28;20229;-73
2022/10/12 05:00:01;;;;;;;6.53;2.57;;;;;;;;;;4997143;28;20616;-74
2022/10/12 05:02:26;;;;;;;5.43;2.00;;;;;;;;;;4998723;28;20774;-74
2022/10/12 05:04:57;;;;;;;4.70;2.37;;;;;;;;;;4978858;28;20217;-75
2022/10/12 05:07:22;;;;;;;3.70;1.90;;;;;;;;;;5005741;28;20225;-75
2022/10/12 05:09:50;;;;;;;5.37;2.13;;;;;;;;;;4982110;28;20229;-74
2022/10/12 05:12:16;;;;;;;4.23;2.07;;;;;;;;;;5004044;28;20657;-74
2022/10/12 05:14:43;;;;;;;4.93;1.60;;;;;;;;;;4996199;28;20228;-75
2022/10/12 05:17:11;;;;;;;4.03;2.13;;;;;;;;;;4992482;28;20237;-74
2022/10/12 05:19:37;;;;;;;4.13;1.90;;;;;;;;;;5002556;28;20228;-75
2022/10/12 05:22:03;;;;;;;2.80;2.07;;;;;;;;;;4974865;28;20228;-74
2022/10/12 05:24:35;;;;;;;3.73;2.40;;;;;;;;;;4988608;28;20232;-74
2022/10/12 05:27:03;;;;;;;4.77;2.47;;;;;;;;;;4968730;28;20788;-74
2022/10/12 05:29:30;;;;;;;5.57;2.30;;;;;;;;;;4994861;28;20221;-74
2022/10/12 05:31:56;;;;;;;4.47;2.37;;;;;;;;;;5005363;28;20241;-75
2022/10/12 05:34:21;;;;;;;4.93;2.10;;;;;;;;;;4988496;28;20984;-74
2022/10/12 05:36:47;;;;;;;5.70;2.33;;;;;;;;;;4997329;28;20240;-74
2022/10/12 05:39:15;;;;;;;5.90;2.50;;;;;;;;;;4989804;28;20222;-74
2022/10/12 05:41:40;;;;;;;8.43;2.50;;;;;;;;;;4955927;28;20226;-74
2022/10/12 05:44:09;;;;;;;2.37;1.80;;;;;;;;;;4977785;28;20582;-74
2022/10/12 05:46:34;;;;;;;4.37;2.30;;;;;;;;;;4987084;28;20619;-74
2022/10/12 05:49:05;;;;;;;4.47;2.40;;;;;;;;;;4981917;28;20217;-75
2022/10/12 05:51:31;;;;;;;2.93;2.40;;;;;;;;;;4974371;28;21015;-73
2022/10/12 05:54:00;;;;;;;6.60;2.30;;;;;;;;;;4985242;28;20229;-75
2022/10/12 05:56:28;;;;;;;5.17;2.33;;;;;;;;;;4998412;28;20259;-74
2022/10/12 05:58:54;;;;;;;7.17;2.27;;;;;;;;;;4965480;28;20653;-73
2022/10/12 06:01:21;;;;;;;8.20;2.90;;;;;;;;;;4982013;28;20229;-74
2022/10/12 06:03:47;;;;;;;26.97;4.70;;;;;;;;;;4991046;28;20229;-74
2022/10/12 06:06:15;;;;;;;9.60;3.37;;;;;;;;;;4993222;28;20225;-75
2022/10/12 06:08:40;;;;;;;4.37;2.33;;;;;;;;;;4955231;28;20825;-74
2022/10/12 06:11:08;;;;;;;10.07;3.07;;;;;;;;;;5002143;28;20723;-73
2022/10/12 06:13:34;;;;;;;6.80;3.20;;;;;;;;;;4985795;28;20265;-74
2022/10/12 06:15:59;;;;;;;5.67;3.30;;;;;;;;;;4998761;28;20229;-76
2022/10/12 06:18:27;;;;;;;8.63;3.30;;;;;;;;;;4976567;28;20227;-73
2022/10/12 06:20:53;;;;;;;5.30;2.90;;;;;;;;;;4976471;28;20222;-71
2022/10/12 06:23:19;;;;;;;4.83;3.10;;;;;;;;;;4977318;28;20222;-75
2022/10/12 06:25:45;;;;;;;5.13;3.10;;;;;;;;;;5000705;28;20258;-75
2022/10/12 06:28:11;;;;;;;6.77;3.50;;;;;;;;;;4986496;28;20354;-75
2022/10/12 06:30:41;;;;;;;5.27;3.60;;;;;;;;;;5007452;28;20615;-75
2022/10/12 06:33:09;;;;;;;5.10;3.63;;;;;;;;;;4952693;28;20288;-75
2022/10/12 06:35:37;;;;;;;7.10;3.40;;;;;;;;;;4987705;28;20544;-75
2022/10/12 06:38:03;;;;;;;5.37;3.53;;;;;;;;;;4979994;28;20369;-74
2022/10/12 06:40:28;;;;;;;5.90;3.50;;;;;;;;;;4975726;28;20643;-73
2022/10/12 06:42:54;;;;;;;4.57;3.50;;;;;;;;;;4967658;28;20232;-74
2022/10/12 06:45:20;;;;;;;6.93;3.80;;;;;;;;;;4976872;28;20680;-74
2022/10/12 06:47:45;;;;;;;7.77;3.93;;;;;;;;;;4953447;28;20283;-75
2022/10/12 06:50:11;;;;;;;7.53;4.10;;;;;;;;;;4978703;28;20225;-74
2022/10/12 06:52:36;;;;;;;6.17;4.27;;;;;;;;;;4984089;28;20260;-74
2022/10/12 06:55:03;;;;;;;11.20;4.63;;;;;;;;;;4978764;28;20745;-74
2022/10/12 06:57:29;;;;;;;6.53;4.13;;;;;;;;;;4983338;28;20251;-74
2022/10/12 06:59:57;;;;;;;5.97;3.87;;;;;;;;;;4974581;28;20253;-74
2022/10/12 07:02:25;;;;;;;9.43;4.53;;;;;;;;;;4974775;28;20217;-75
2022/10/12 07:04:50;;;;;;;4.60;3.60;;;;;;;;;;4998955;28;20236;-75
2022/10/12 07:07:20;;;;;;;9.07;4.33;;;;;;;;;;4991111;28;20229;-74
2022/10/12 07:09:46;;;;;;;9.50;3.93;;;;;;;;;;5000543;28;20424;-74
2022/10/12 07:12:12;;;;;;;7.87;4.57;;;;;;;;;;4973980;28;20716;-73
2022/10/12 07:14:37;;;;;;;6.63;4.07;;;;;;;;;;4977086;28;20232;-75
2022/10/12 07:17:03;;;;;;;9.90;3.97;;;;;;;;;;4985602;28;20225;-76
2022/10/12 07:19:30;;;;;;;7.50;4.03;;;;;;;;;;4994135;28;20699;-73
2022/10/12 07:21:56;;;;;;;9.33;3.87;;;;;;;;;;5008738;28;20231;-75
2022/10/12 07:24:24;;;;;;;5.33;3.93;;;;;;;;;;4981177;28;20217;-74
2022/10/12 07:26:50;;;;;;;10.43;4.30;;;;;;;;;;4994165;28;20303;-74
2022/10/12 07:29:15;;;;;;;5.00;3.73;;;;;;;;;;4971357;28;20225;-74
2022/10/12 07:31:44;;;;;;;8.07;3.90;;;;;;;;;;4985070;28;20747;-74
2022/10/12 07:34:09;;;;;;;10.17;4.13;;;;;;;;;;4977212;28;20225;-73
2022/10/12 07:36:35;;;;;;;10.57;4.70;;;;;;;;;;4976841;28;20834;-74
2022/10/12 07:39:00;;;;;;;8.03;4.23;;;;;;;;;;4998695;28;20217;-74
2022/10/12 07:41:28;;;;;;;7.80;4.13;;;;;;;;;;4973734;28;20610;-73
2022/10/12 07:43:55;;;;;;;7.47;3.93;;;;;;;;;;4980784;28;20713;-73
2022/10/12 07:46:20;;;;;;;9.67;3.90;;;;;;;;;;4983503;28;20217;-75
2022/10/12 07:48:48;;;;;;;7.53;4.00;;;;;;;;;;4990905;28;20230;-72
2022/10/12 07:51:14;;;;;;;6.13;3.60;;;;;;;;;;4981547;28;20231;-73
2022/10/12 07:53:39;;;;;;;7.23;3.97;;;;;;;;;;4967036;28;20233;-73
2022/10/12 07:56:06;;;;;;;9.23;3.97;;;;;;;;;;5000652;28;20225;-74
2022/10/12 07:58:32;;;;;;;10.40;3.80;;;;;;;;;;4960537;28;20603;-74
2022/10/12 08:01:04;;;;;;;5.60;4.00;;;;;;;;;;4972774;28;20224;-73
2022/10/12 08:03:30;;;;;;;9.33;3.63;;;;;;;;;;4989437;28;20221;-73
2022/10/12 08:05:56;;;;;;;9.40;3.93;;;;;;;;;;4978628;28;20224;-74
2022/10/12 08:08:23;;;;;;;11.17;4.13;;;;;;;;;;4970561;28;20627;-73
2022/10/12 08:10:49;;;;;;;8.07;3.80;;;;;;;;;;4991047;28;20229;-74
2022/10/12 08:13:14;;;;;;;8.10;3.70;;;;;;;;;;4994466;28;20315;-73
2022/10/12 08:15:40;;;;;;;6.83;3.87;;;;;;;;;;4992054;28;20222;-73
2022/10/12 08:18:08;;;;;;;8.67;3.60;;;;;;;;;;4977094;28;20224;-73
2022/10/12 08:20:34;;;;;;;7.20;3.60;;;;;;;;;;4979327;28;20231;-73
2022/10/12 08:22:59;;;;;;;8.93;3.13;;;;;;;;;;4956156;28;20224;-73
2022/10/12 08:25:28;;;;;;;7.90;2.80;;;;;;;;;;4982139;28;20224;-74
2022/10/12 08:27:53;;;;;;;5.57;2.90;;;;;;;;;;4981960;28;20224;-74
2022/10/12 08:30:25;;;;;;;11.57;3.50;;;;;;;;;;4992334;28;20224;-74
2022/10/12 08:32:51;;;;;;;9.60;2.80;;;;;;;;;;5002521;28;20531;-74
2022/10/12 08:35:19;;;;;;;7.43;3.10;;;;;;;;;;4969924;28;20241;-74
2022/10/12 08:37:45;;;;;;;7.10;2.67;;;;;;;;;;4983509;28;20222;-74
2022/10/12 08:40:19;;;;;;;5.47;2.77;;;;;;;;;;4993189;28;20299;-74
2022/10/12 08:42:51;;;;;;;7.37;2.83;;;;;;;;;;4984353;28;20248;-74
2022/10/12 08:45:49;;;;;;;8.97;2.57;;;;;;;;;;5007554;28;20221;-74
2022/10/12 08:48:20;;;;;;;5.00;2.40;;;;;;;;;;4990209;28;20233;-73
2022/10/12 08:50:52;;;;;;;7.23;2.43;;;;;;;;;;4989467;28;20228;-73
2022/10/12 08:53:24;;;;;;;5.37;2.40;;;;;;;;;;4981777;28;20229;-73
2022/10/12 08:55:52;;;;;;;6.23;2.27;;;;;;;;;;5013590;28;20278;-73
2022/10/12 08:58:41;;;;;;;4.63;2.30;;;;;;;;;;4992612;28;20237;-73
2022/10/12 09:01:12;;;;;;;4.63;2.00;;;;;;;;;;4992500;28;20727;-75
2022/10/12 09:03:44;;;;;;;6.40;2.37;;;;;;;;;;5005117;28;20235;-73
2022/10/12 09:06:29;;;;;;;7.73;2.30;;;;;;;;;;4992417;28;20229;-74
2022/10/12 09:09:06;;;;;;;7.97;2.40;;;;;;;;;;5003420;28;20228;-73
2022/10/12 09:11:40;;;;;;;6.70;2.33;;;;;;;;;;4997155;28;20229;-74
2022/10/12 09:14:23;;;;;;;3.83;1.90;;;;;;;;;;4988028;28;20229;-73
2022/10/12 09:16:49;;;;;;;3.90;2.10;;;;;;;;;;4989527;28;20763;-73
2022/10/12 09:19:20;;;;;;;6.00;2.10;;;;;;;;;;4993286;28;20718;-73
2022/10/12 09:21:50;;;;;;;4.80;1.77;;;;;;;;;;4990937;28;20237;-74
2022/10/12 09:24:27;;;;;;;5.63;2.20;;;;;;;;;;4984637;28;20269;-74
2022/10/12 09:26:59;;;;;;;6.77;2.07;;;;;;;;;;4981882;28;20221;-72
2022/10/12 09:29:30;;;;;;;4.43;2.10;;;;;;;;;;4978228;28;20715;-74
2022/10/12 09:32:08;;;;;;;3.73;1.80;;;;;;;;;;4991378;28;20230;-73
2022/10/12 09:34:34;;;;;;;5.33;2.57;;;;;;;;;;4999071;28;20224;-73
2022/10/12 09:37:04;;;;;;;5.13;1.57;;;;;;;;;;4995268;28;20283;-73
2022/10/12 09:39:31;;;;;;;7.33;2.00;;;;;;;;;;4976440;28;20703;-74
2022/10/12 09:41:56;;;;;;;10.30;2.60;;;;;;;;;;4986159;28;20225;-73
2022/10/12 09:44:30;;;;;;;5.63;1.90;;;;;;;;;;4982910;28;20733;-73
2022/10/12 09:47:00;;;;;;;5.07;1.93;;;;;;;;;;4972128;28;20744;-74
2022/10/12 09:49:45;;;;;;;5.23;1.63;;;;;;;;;;5002832;28;20274;-75
2022/10/12 09:52:11;;;;;;;4.50;1.93;;;;;;;;;;4979613;28;20813;-74
2022/10/12 09:54:45;;;;;;;14.20;2.07;;;;;;;;;;4996285;28;20726;-74
2022/10/12 09:57:33;;;;;;;4.57;1.67;;;;;;;;;;5000088;28;20845;-74
2022/10/12 10:00:05;;;;;;;8.40;2.03;;;;;;;;;;4983643;28;20224;-74
2022/10/12 10:02:46;;;;;;;5.82;1.63;;;;;;;;;;5004271;28;20224;-73
2022/10/12 10:05:28;;;;;;;5.73;2.03;;;;;;;;;;4988243;28;20295;-74
2022/10/12 10:08:23;;;;;;;4.47;1.83;;;;;;;;;;4995605;28;20237;-73
2022/10/12 10:10:56;;;;;;;5.03;1.90;;;;;;;;;;4959235;28;20233;-74
2022/10/12 10:13:30;;;;;;;5.00;1.83;;;;;;;;;;4986562;28;20237;-74
2022/10/12 10:16:13;;;;;;;4.77;1.93;;;;;;;;;;4969340;28;20738;-77
2022/10/12 10:18:44;;;;;;;5.93;1.48;;;;;;;;;;4979847;28;20704;-73
2022/10/12 10:21:13;;;;;;;5.57;1.70;;;;;;;;;;4999027;28;20268;-75
2022/10/12 10:23:58;;;;;;;7.18;1.85;;;;;;;;;;4984507;28;20664;-73
2022/10/12 10:26:24;;;;;;;5.03;1.70;;;;;;;;;;4993174;28;20230;-74
2022/10/12 10:28:55;;;;;;;4.63;1.40;;;;;;;;;;4964748;28;20226;-72
2022/10/12 10:31:24;;;;;;;6.80;2.30;;;;;;;;;;4998965;28;20212;-74
2022/10/12 10:34:10;;;;;;;3.80;1.70;;;;;;;;;;4981579;28;20236;-73
2022/10/12 10:36:43;;;;;;;6.03;1.83;;;;;;;;;;4995637;28;20249;-74
2022/10/12 10:39:18;;;;;;;5.85;1.88;;;;;;;;;;4977917;28;20371;-74
2022/10/12 10:41:43;;;;;;;7.88;1.60;;;;;;;;;;4984437;28;20251;-74
2022/10/12 10:44:26;;;;;;;5.00;1.95;;;;;;;;;;4990679;28;20225;-74
2022/10/12 10:46:57;;;;;;;4.15;1.52;;;;;;;;;;5008944;28;20257;-74
2022/10/12 10:49:33;;;;;;;6.65;1.52;;;;;;;;;;4977711;28;20718;-74
2022/10/12 10:51:58;;;;;;;6.32;1.48;;;;;;;;;;5001294;28;20225;-72
2022/10/12 10:54:29;;;;;;;4.40;1.73;;;;;;;;;;4980157;28;20711;-72
2022/10/12 10:57:18;;;;;;;2.83;1.42;;;;;;;;;;4993763;28;20225;-73
2022/10/12 10:59:50;;;;;;;3.95;1.80;;;;;;;;;;4967804;28;20242;-78
2022/10/12 11:02:38;;;;;;;6.72;1.80;;;;;;;;;;4995531;28;20699;-73
2022/10/12 11:05:14;;;;;;;5.65;1.88;;;;;;;;;;4990987;28;20342;-73
2022/10/12 11:07:47;;;;;;;3.85;1.40;;;;;;;;;;4986170;28;20573;-73
2022/10/12 11:10:17;;;;;;;5.05;1.73;;;;;;;;;;4994284;28;20221;-73
2022/10/12 11:12:45;;;;;;;4.47;1.40;;;;;;;;;;4984114;28;20333;-74
2022/10/12 11:15:28;;;;;;;4.47;1.48;;;;;;;;;;5009448;28;20305;-73
2022/10/12 11:18:07;;;;;;;3.80;1.85;;;;;;;;;;4980831;28;20241;-74
2022/10/12 11:20:46;;;;;;;4.20;1.75;;;;;;;;;;4976477;28;20225;-73
2022/10/12 11:23:45;;;;;;;4.05;1.70;;;;;;;;;;4967358;28;20233;-73
2022/10/12 11:26:10;;;;;;;8.02;1.70;;;;;;;;;;4979878;28;20233;-74
2022/10/12 11:28:38;;;;;;;6.05;1.55;;;;;;;;;;4993792;28;20354;-74
2022/10/12 11:31:11;;;;;;;6.30;1.80;;;;;;;;;;4972956;28;20642;-74
2022/10/12 11:33:38;;;;;;;3.83;1.60;;;;;;;;;;4980425;28;20615;-74
2022/10/12 11:36:10;;;;;;;4.03;1.70;;;;;;;;;;4978247;28;20300;-73
2022/10/12 11:38:45;;;;;;;4.20;1.65;;;;;;;;;;4981979;28;20236;-73
2022/10/12 11:41:25;;;;;;;3.33;1.55;;;;;;;;;;4983137;28;20257;-74
2022/10/12 11:44:34;;;;;;;7.00;1.90;;;;;;;;;;4988702;28;20234;-75
2022/10/12 11:47:13;;;;;;;6.50;1.60;;;;;;;;;;4918259;29;20257;-73
2022/10/12 11:49:57;;;;;;;4.28;1.85;;;;;;;;;;5006066;28;20266;-73
2022/10/12 11:52:23;;;;;;;3.17;1.50;;;;;;;;;;4988655;28;20237;-74
2022/10/12 11:54:58;;;;;;;3.45;1.42;;;;;;;;;;4957754;28;20253;-74
2022/10/12 11:57:30;;;;;;;7.10;2.00;;;;;;;;;;4993882;28;20221;-73
2022/10/12 12:00:02;;;;;;;5.45;1.67;;;;;;;;;;4996907;28;20226;-73
2022/10/12 12:02:39;;;;;;;5.30;2.00;;;;;;;;;;4978988;28;20277;-73
2022/10/12 12:05:14;;;;;;;8.05;2.00;;;;;;;;;;4975787;28;20217;-73
2022/10/12 12:07:44;;;;;;;5.68;1.50;;;;;;;;;;4983368;28;20291;-72
2022/10/12 12:10:29;;;;;;;3.58;1.45;;;;;;;;;;4992350;28;20213;-73
2022/10/12 12:13:13;;;;;;;4.40;1.63;;;;;;;;;;5014379;28;20242;-72
2022/10/12 12:15:44;;;;;;;3.63;1.60;;;;;;;;;;5010162;28;20337;-73
2022/10/12 12:18:16;;;;;;;3.13;1.50;;;;;;;;;;4979574;28;20236;-74
2022/10/12 12:20:45;;;;;;;4.40;1.60;;;;;;;;;;4991665;28;20260;-73
2022/10/12 12:23:23;;;;;;;4.68;1.45;;;;;;;;;;4993200;28;20992;-73
2022/10/12 12:26:08;;;;;;;4.18;1.55;;;;;;;;;;5011420;28;20240;-74
2022/10/12 12:28:51;;;;;;;3.47;1.58;;;;;;;;;;4970101;28;20305;-73
2022/10/12 12:31:22;;;;;;;3.92;1.52;;;;;;;;;;4997570;28;20240;-72
2022/10/12 12:34:07;;;;;;;2.95;1.50;;;;;;;;;;4990412;28;20241;-74
2022/10/12 12:36:37;;;;;;;3.60;1.30;;;;;;;;;;4997009;28;20229;-73
2022/10/12 12:39:07;;;;;;;2.40;1.35;;;;;;;;;;4970270;28;20640;-73
2022/10/12 12:41:53;;;;;;;4.93;1.45;;;;;;;;;;4973303;28;20327;-73
2022/10/12 12:44:36;;;;;;;2.88;1.60;;;;;;;;;;4964602;28;20221;-73
2022/10/12 12:47:04;;;;;;;6.22;1.48;;;;;;;;;;4983167;28;20255;-73
2022/10/12 12:49:43;;;;;;;3.15;1.40;;;;;;;;;;4995016;28;20221;-74
2022/10/12 12:52:24;;;;;;;4.25;1.40;;;;;;;;;;4997897;28;20248;-73
2022/10/12 12:55:08;;;;;;;3.08;1.52;;;;;;;;;;4979602;28;20235;-74
2022/10/12 12:57:55;;;;;;;4.00;1.40;;;;;;;;;;5002342;28;20229;-75
2022/10/12 13:00:21;;;;;;;4.20;1.60;;;;;;;;;;5011508;28;20651;-74
2022/10/12 13:03:14;;;;;;;7.82;1.75;;;;;;;;;;4994771;28;20319;-76
2022/10/12 13:05:59;;;;;;;12.43;1.50;;;;;;;;;;5006259;28;20707;-74
2022/10/12 13:08:42;;;;;;;3.40;1.50;;;;;;;;;;4999504;28;20245;-74
2022/10/12 13:11:19;;;;;;;3.75;1.40;;;;;;;;;;4996452;28;20217;-73
2022/10/12 13:14:11;;;;;;;6.05;1.70;;;;;;;;;;4998127;28;20236;-75
2022/10/12 13:16:43;;;;;;;4.32;1.60;;;;;;;;;;4992552;28;20233;-75
2022/10/12 13:19:10;;;;;;;3.20;1.55;;;;;;;;;;5003679;28;20351;-73
2022/10/12 13:21:38;;;;;;;5.40;1.63;;;;;;;;;;4972409;28;20222;-74
2022/10/12 13:24:27;;;;;;;4.10;1.40;;;;;;;;;;4994707;28;20694;-75
2022/10/12 13:27:10;;;;;;;6.63;1.92;;;;;;;;;;4997963;28;20255;-74
2022/10/12 13:29:45;;;;;;;10.68;1.73;;;;;;;;;;4988676;28;20222;-75
2022/10/12 13:32:24;;;;;;;3.88;1.55;;;;;;;;;;4965567;28;20233;-73
2022/10/12 13:34:49;;;;;;;3.58;1.52;;;;;;;;;;4977318;28;20244;-74
2022/10/12 13:37:17;;;;;;;4.55;1.60;;;;;;;;;;4961814;28;20696;-73
2022/10/12 13:39:45;;;;;;;4.57;1.55;;;;;;;;;;4999902;28;20256;-74
2022/10/12 13:42:19;;;;;;;6.90;1.80;;;;;;;;;;4976208;28;20216;-75
2022/10/12 13:44:45;;;;;;;3.00;1.33;;;;;;;;;;4957275;28;20226;-75
2022/10/12 13:47:40;;;;;;;5.72;1.45;;;;;;;;;;4981977;28;20592;-74
2022/10/12 13:50:17;;;;;;;4.40;1.60;;;;;;;;;;4988485;28;20245;-75
2022/10/12 13:52:50;;;;;;;5.72;1.63;;;;;;;;;;4996258;28;20730;-75
2022/10/12 13:55:23;;;;;;;4.00;1.70;;;;;;;;;;4989810;28;20225;-74
2022/10/12 13:57:49;;;;;;;3.88;1.70;;;;;;;;;;4997801;28;20237;-73
2022/10/12 14:00:17;;;;;;;3.05;1.58;;;;;;;;;;4956505;28;20217;-73
2022/10/12 14:02:56;;;;;;;3.30;1.35;;;;;;;;;;4993244;28;20609;-74
2022/10/12 14:05:23;;;;;;;6.70;1.60;;;;;;;;;;4979949;28;20706;-74
2022/10/12 14:07:49;;;;;;;3.45;1.45;;;;;;;;;;4973355;28;20244;-74
2022/10/12 14:10:19;;;;;;;3.83;1.60;;;;;;;;;;4978036;28;20299;-74
2022/10/12 14:12:45;;;;;;;5.20;1.67;;;;;;;;;;4976618;28;20236;-74
2022/10/12 14:15:13;;;;;;;3.40;1.35;;;;;;;;;;4969093;28;20213;-74
2022/10/12 14:17:45;;;;;;;5.35;1.65;;;;;;;;;;4983607;28;20715;-73
2022/10/12 14:20:33;;;;;;;5.20;1.52;;;;;;;;;;4995041;28;20256;-73
2022/10/12 14:22:59;;;;;;;3.90;1.50;;;;;;;;;;5000851;28;20704;-75
2022/10/12 14:25:29;;;;;;;3.45;1.70;;;;;;;;;;4994409;28;20259;-75
2022/10/12 14:28:00;;;;;;;4.45;1.50;;;;;;;;;;4986569;28;20228;-73
2022/10/12 14:30:30;;;;;;;4.57;1.45;;;;;;;;;;4983809;28;20343;-75
2022/10/12 14:33:20;;;;;;;5.88;1.75;;;;;;;;;;4981730;28;20238;-73
2022/10/12 14:35:50;;;;;;;3.88;1.48;;;;;;;;;;4982136;28;20226;-72
2022/10/12 14:38:41;;;;;;;3.90;1.38;;;;;;;;;;4970090;28;20226;-73
2022/10/12 14:41:29;;;;;;;8.90;1.40;;;;;;;;;;5001239;28;20228;-73
2022/10/12 14:44:06;;;;;;;4.07;1.45;;;;;;;;;;4982639;28;20249;-74
2022/10/12 14:46:37;;;;;;;3.90;1.35;;;;;;;;;;4989449;28;20319;-73
2022/10/12 14:49:03;;;;;;;8.57;1.73;;;;;;;;;;4977866;28;20287;-74
2022/10/12 14:51:33;;;;;;;4.65;1.95;;;;;;;;;;4963998;28;20209;-74
2022/10/12 14:54:02;;;;;;;7.45;1.60;;;;;;;;;;4986246;28;20234;-74
2022/10/12 14:56:28;;;;;;;3.50;1.17;;;;;;;;;;4995834;28;20312;-75
2022/10/12 14:58:53;;;;;;;3.22;1.52;;;;;;;;;;4976180;28;20611;-74
2022/10/12 15:01:23;;;;;;;3.45;1.42;;;;;;;;;;4964110;28;20512;-74
2022/10/12 15:03:51;;;;;;;3.22;1.27;;;;;;;;;;4993928;28;20661;-75
2022/10/12 15:06:22;;;;;;;3.92;2.95;;;;;;;;;;4978650;28;20346;-74